Palmelo, Brazil
Current Conditions -  °F | °C
As of 1:00 PM on Saturday 20 Dec 2014 (Local Time) from SBGO Reporting Station
Broken Clouds Broken Clouds  
Wind Chill: 73°   Ceiling: 9000
Heat Index: 73°   Visibility: 6mi
Dew Point: 66°   Wind: 6mph
Humidity: 78%   Direction: 340°NNW
Pressure: 29.97"   Gusts: NA
Location:  17.32°S, 48.42°W
Report Text: SBGO 201500Z 34005KT 9999 SCT020 FEW025TCU BKN090 23/19 Q1015 R ERA
Loading
Personal Weather Stations






























Interactive Weather Map New forecast layout! Learn more

10-Day Weather Forecast

Advertisements
Track Severe Weather on mobile